sensor_id;sensor_type;location;lat;lon;timestamp;pressure;altitude;pressure_sealevel;temperature;humidity
37778;BME280;23615;51.506;7.678;2022-12-18T00:00:46;101267.88;;;-5.99;94.08
37778;BME280;23615;51.506;7.678;2022-12-18T00:03:14;101265.66;;;-5.91;93.29
37778;BME280;23615;51.506;7.678;2022-12-18T00:05:47;101258.06;;;-5.80;93.56
37778;BME280;23615;51.506;7.678;2022-12-18T00:08:12;101262.66;;;-5.69;93.46
37778;BME280;23615;51.506;7.678;2022-12-18T00:10:38;101256.81;;;-5.58;93.54
37778;BME280;23615;51.506;7.678;2022-12-18T00:13:03;101262.97;;;-5.45;93.40
37778;BME280;23615;51.506;7.678;2022-12-18T00:15:28;101256.94;;;-5.32;93.74
37778;BME280;23615;51.506;7.678;2022-12-18T00:17:53;101257.25;;;-5.22;93.88
37778;BME280;23615;51.506;7.678;2022-12-18T00:20:19;101262.97;;;-5.17;93.54
37778;BME280;23615;51.506;7.678;2022-12-18T00:22:50;101256.38;;;-5.08;93.57
37778;BME280;23615;51.506;7.678;2022-12-18T00:25:16;101263.84;;;-5.02;93.90
37778;BME280;23615;51.506;7.678;2022-12-18T00:27:41;101263.72;;;-5.01;94.17
37778;BME280;23615;51.506;7.678;2022-12-18T00:30:06;101261.53;;;-4.93;94.17
37778;BME280;23615;51.506;7.678;2022-12-18T00:32:32;101267.91;;;-4.84;94.31
37778;BME280;23615;51.506;7.678;2022-12-18T00:34:57;101281.56;;;-4.80;94.16
37778;BME280;23615;51.506;7.678;2022-12-18T00:37:23;101277.03;;;-4.77;94.18
37778;BME280;23615;51.506;7.678;2022-12-18T00:39:48;101277.84;;;-4.76;94.32
37778;BME280;23615;51.506;7.678;2022-12-18T00:42:14;101284.00;;;-4.77;94.15
37778;BME280;23615;51.506;7.678;2022-12-18T00:44:58;101271.50;;;-4.72;94.28
37778;BME280;23615;51.506;7.678;2022-12-18T00:47:23;101268.91;;;-4.72;94.36
37778;BME280;23615;51.506;7.678;2022-12-18T00:49:49;101283.34;;;-4.67;94.37
37778;BME280;23615;51.506;7.678;2022-12-18T00:52:14;101284.88;;;-4.64;94.06
37778;BME280;23615;51.506;7.678;2022-12-18T00:54:39;101283.13;;;-4.64;94.14
37778;BME280;23615;51.506;7.678;2022-12-18T00:57:04;101284.88;;;-4.64;94.03
37778;BME280;23615;51.506;7.678;2022-12-18T00:59:30;101284.69;;;-4.61;94.30
37778;BME280;23615;51.506;7.678;2022-12-18T01:01:55;101295.97;;;-4.61;93.94
37778;BME280;23615;51.506;7.678;2022-12-18T01:04:20;101290.75;;;-4.61;94.09
37778;BME280;23615;51.506;7.678;2022-12-18T01:06:46;101291.69;;;-4.62;94.14
37778;BME280;23615;51.506;7.678;2022-12-18T01:09:11;101279.69;;;-4.64;94.06
37778;BME280;23615;51.506;7.678;2022-12-18T01:11:36;101277.28;;;-4.67;94.10
37778;BME280;23615;51.506;7.678;2022-12-18T01:14:02;101273.50;;;-4.76;94.27
37778;BME280;23615;51.506;7.678;2022-12-18T01:16:27;101277.75;;;-4.75;93.73
37778;BME280;23615;51.506;7.678;2022-12-18T01:18:54;101277.09;;;-4.78;93.51
37778;BME280;23615;51.506;7.678;2022-12-18T01:21:20;101271.25;;;-4.82;93.96
37778;BME280;23615;51.506;7.678;2022-12-18T01:23:46;101283.13;;;-4.64;93.13
37778;BME280;23615;51.506;7.678;2022-12-18T01:26:14;101277.19;;;-4.66;91.78
37778;BME280;23615;51.506;7.678;2022-12-18T01:28:40;101284.06;;;-4.79;92.02
37778;BME280;23615;51.506;7.678;2022-12-18T01:31:11;101283.88;;;-4.90;92.30
37778;BME280;23615;51.506;7.678;2022-12-18T01:33:36;101291.06;;;-4.94;92.52
37778;BME280;23615;51.506;7.678;2022-12-18T01:36:01;101288.63;;;-4.97;92.89
37778;BME280;23615;51.506;7.678;2022-12-18T01:38:28;101294.84;;;-4.99;92.40
37778;BME280;23615;51.506;7.678;2022-12-18T01:41:01;101286.50;;;-5.04;92.77
37778;BME280;23615;51.506;7.678;2022-12-18T01:43:49;101281.41;;;-5.06;93.06
37778;BME280;23615;51.506;7.678;2022-12-18T01:46:16;101277.28;;;-5.10;92.44
37778;BME280;23615;51.506;7.678;2022-12-18T01:48:42;101276.19;;;-5.06;92.35
37778;BME280;23615;51.506;7.678;2022-12-18T01:51:09;101272.09;;;-5.10;92.17
37778;BME280;23615;51.506;7.678;2022-12-18T01:53:36;101265.13;;;-5.09;92.33
37778;BME280;23615;51.506;7.678;2022-12-18T01:56:02;101273.03;;;-5.11;92.45
37778;BME280;23615;51.506;7.678;2022-12-18T01:59:19;101267.63;;;-5.08;92.20
37778;BME280;23615;51.506;7.678;2022-12-18T02:01:25;101260.56;;;-5.06;92.33
37778;BME280;23615;51.506;7.678;2022-12-18T02:03:52;101262.16;;;-5.03;92.30
37778;BME280;23615;51.506;7.678;2022-12-18T02:09:14;101260.41;;;-5.03;92.54
37778;BME280;23615;51.506;7.678;2022-12-18T02:12:04;101265.88;;;-4.93;92.45
37778;BME280;23615;51.506;7.678;2022-12-18T02:14:38;101259.63;;;-4.91;92.11
37778;BME280;23615;51.506;7.678;2022-12-18T02:17:11;101250.63;;;-4.85;92.31
37778;BME280;23615;51.506;7.678;2022-12-18T02:20:01;101251.38;;;-4.83;92.33
37778;BME280;23615;51.506;7.678;2022-12-18T02:28:15;101248.66;;;-4.67;92.94
37778;BME280;23615;51.506;7.678;2022-12-18T02:30:42;101250.03;;;-4.62;92.67
37778;BME280;23615;51.506;7.678;2022-12-18T02:33:10;101253.28;;;-4.58;93.35
37778;BME280;23615;51.506;7.678;2022-12-18T02:35:36;101253.81;;;-4.53;93.59
37778;BME280;23615;51.506;7.678;2022-12-18T02:38:03;101257.34;;;-4.54;92.68
37778;BME280;23615;51.506;7.678;2022-12-18T02:40:30;101259.78;;;-4.51;92.89
37778;BME280;23615;51.506;7.678;2022-12-18T02:43:02;101256.31;;;-4.52;93.13
37778;BME280;23615;51.506;7.678;2022-12-18T02:45:28;101258.94;;;-4.52;93.27
37778;BME280;23615;51.506;7.678;2022-12-18T02:47:53;101254.97;;;-4.57;93.02
37778;BME280;23615;51.506;7.678;2022-12-18T02:50:26;101259.50;;;-4.61;93.21
37778;BME280;23615;51.506;7.678;2022-12-18T03:01:09;101264.19;;;-4.66;93.26
37778;BME280;23615;51.506;7.678;2022-12-18T03:03:41;101265.19;;;-4.68;93.42
37778;BME280;23615;51.506;7.678;2022-12-18T03:06:13;101261.75;;;-4.69;92.89
37778;BME280;23615;51.506;7.678;2022-12-18T03:08:45;101249.75;;;-4.71;92.90
37778;BME280;23615;51.506;7.678;2022-12-18T03:11:13;101245.47;;;-4.72;93.33
37778;BME280;23615;51.506;7.678;2022-12-18T03:13:50;101246.22;;;-4.70;93.05
37778;BME280;23615;51.506;7.678;2022-12-18T03:16:21;101241.59;;;-4.65;92.84
37778;BME280;23615;51.506;7.678;2022-12-18T03:18:54;101239.59;;;-4.62;93.00
37778;BME280;23615;51.506;7.678;2022-12-18T03:21:25;101240.16;;;-4.57;92.91
37778;BME280;23615;51.506;7.678;2022-12-18T03:23:52;101239.88;;;-4.52;92.83
37778;BME280;23615;51.506;7.678;2022-12-18T03:26:22;101248.25;;;-4.47;92.92
37778;BME280;23615;51.506;7.678;2022-12-18T03:28:53;101238.44;;;-4.43;93.03
37778;BME280;23615;51.506;7.678;2022-12-18T03:31:22;101249.50;;;-4.40;93.00
37778;BME280;23615;51.506;7.678;2022-12-18T03:33:53;101243.06;;;-4.34;92.97
37778;BME280;23615;51.506;7.678;2022-12-18T03:36:19;101247.44;;;-4.35;92.94
37778;BME280;23615;51.506;7.678;2022-12-18T03:38:44;101244.66;;;-4.32;93.17
37778;BME280;23615;51.506;7.678;2022-12-18T03:41:19;101247.91;;;-4.28;93.25
37778;BME280;23615;51.506;7.678;2022-12-18T03:43:52;101249.75;;;-4.30;93.11
37778;BME280;23615;51.506;7.678;2022-12-18T03:46:34;101241.94;;;-4.30;93.04
37778;BME280;23615;51.506;7.678;2022-12-18T03:49:11;101247.16;;;-4.30;93.07
37778;BME280;23615;51.506;7.678;2022-12-18T03:51:52;101241.84;;;-4.29;93.09
37778;BME280;23615;51.506;7.678;2022-12-18T03:54:18;101239.34;;;-4.30;92.68
37778;BME280;23615;51.506;7.678;2022-12-18T03:56:52;101231.63;;;-4.32;93.01
37778;BME280;23615;51.506;7.678;2022-12-18T03:59:20;101231.63;;;-4.32;93.07
37778;BME280;23615;51.506;7.678;2022-12-18T04:01:49;101234.88;;;-4.28;92.99
37778;BME280;23615;51.506;7.678;2022-12-18T04:04:18;101239.97;;;-4.27;92.46
37778;BME280;23615;51.506;7.678;2022-12-18T04:06:44;101239.25;;;-4.29;92.67
37778;BME280;23615;51.506;7.678;2022-12-18T04:09:11;101248.94;;;-4.31;92.77
37778;BME280;23615;51.506;7.678;2022-12-18T04:11:37;101250.59;;;-4.30;92.75
37778;BME280;23615;51.506;7.678;2022-12-18T04:14:02;101245.19;;;-4.27;93.04
37778;BME280;23615;51.506;7.678;2022-12-18T04:16:27;101251.44;;;-4.29;92.40
37778;BME280;23615;51.506;7.678;2022-12-18T04:18:53;101237.38;;;-4.27;92.74
37778;BME280;23615;51.506;7.678;2022-12-18T04:21:19;101234.75;;;-4.27;92.43
37778;BME280;23615;51.506;7.678;2022-12-18T04:23:45;101237.28;;;-4.25;92.30
37778;BME280;23615;51.506;7.678;2022-12-18T04:26:10;101241.44;;;-4.23;92.53
37778;BME280;23615;51.506;7.678;2022-12-18T04:28:35;101234.28;;;-4.19;92.38
37778;BME280;23615;51.506;7.678;2022-12-18T04:31:01;101235.00;;;-4.17;92.42
37778;BME280;23615;51.506;7.678;2022-12-18T04:33:26;101227.75;;;-4.12;92.41
37778;BME280;23615;51.506;7.678;2022-12-18T04:35:51;101230.25;;;-4.10;92.06
37778;BME280;23615;51.506;7.678;2022-12-18T04:38:16;101219.81;;;-4.10;92.33
37778;BME280;23615;51.506;7.678;2022-12-18T04:40:42;101237.09;;;-4.09;92.07
37778;BME280;23615;51.506;7.678;2022-12-18T04:43:08;101241.28;;;-4.07;92.40
37778;BME280;23615;51.506;7.678;2022-12-18T04:45:33;101243.81;;;-4.05;92.25
37778;BME280;23615;51.506;7.678;2022-12-18T04:48:02;101239.41;;;-4.05;92.27
37778;BME280;23615;51.506;7.678;2022-12-18T04:50:28;101236.63;;;-4.02;91.91
37778;BME280;23615;51.506;7.678;2022-12-18T04:52:53;101236.31;;;-3.97;91.87
37778;BME280;23615;51.506;7.678;2022-12-18T04:55:18;101246.00;;;-3.99;92.04
37778;BME280;23615;51.506;7.678;2022-12-18T04:57:44;101241.72;;;-4.00;91.82
37778;BME280;23615;51.506;7.678;2022-12-18T05:00:10;101239.66;;;-3.95;92.04
37778;BME280;23615;51.506;7.678;2022-12-18T05:02:35;101241.09;;;-3.91;92.20
37778;BME280;23615;51.506;7.678;2022-12-18T05:05:00;101241.75;;;-3.88;91.35
37778;BME280;23615;51.506;7.678;2022-12-18T05:07:26;101238.31;;;-3.88;91.38
37778;BME280;23615;51.506;7.678;2022-12-18T05:09:51;101225.09;;;-3.85;91.41
37778;BME280;23615;51.506;7.678;2022-12-18T05:12:16;101225.09;;;-3.85;91.34
37778;BME280;23615;51.506;7.678;2022-12-18T05:14:41;101225.69;;;-3.82;91.24
37778;BME280;23615;51.506;7.678;2022-12-18T05:17:07;101218.84;;;-3.83;91.24
37778;BME280;23615;51.506;7.678;2022-12-18T05:19:32;101222.16;;;-3.81;91.46
37778;BME280;23615;51.506;7.678;2022-12-18T05:21:57;101220.19;;;-3.77;91.35
37778;BME280;23615;51.506;7.678;2022-12-18T05:24:23;101212.78;;;-3.70;90.97
37778;BME280;23615;51.506;7.678;2022-12-18T05:26:48;101206.53;;;-3.68;90.95
37778;BME280;23615;51.506;7.678;2022-12-18T05:29:14;101207.19;;;-3.64;90.96
37778;BME280;23615;51.506;7.678;2022-12-18T05:31:39;101207.28;;;-3.66;90.80
37778;BME280;23615;51.506;7.678;2022-12-18T05:34:07;101206.34;;;-3.65;91.26
37778;BME280;23615;51.506;7.678;2022-12-18T05:36:33;101203.97;;;-3.55;91.15
37778;BME280;23615;51.506;7.678;2022-12-18T05:38:58;101204.66;;;-3.53;90.97
37778;BME280;23615;51.506;7.678;2022-12-18T05:41:25;101203.97;;;-3.55;90.79
37778;BME280;23615;51.506;7.678;2022-12-18T05:43:50;101203.81;;;-3.54;90.89
37778;BME280;23615;51.506;7.678;2022-12-18T05:46:17;101204.66;;;-3.53;90.95
37778;BME280;23615;51.506;7.678;2022-12-18T05:48:43;101202.16;;;-3.55;90.79
37778;BME280;23615;51.506;7.678;2022-12-18T05:51:15;101202.59;;;-3.48;90.73
37778;BME280;23615;51.506;7.678;2022-12-18T05:53:41;101208.22;;;-3.54;90.57
37778;BME280;23615;51.506;7.678;2022-12-18T05:56:10;101202.38;;;-3.58;90.92
37778;BME280;23615;51.506;7.678;2022-12-18T05:58:35;101206.97;;;-3.61;90.82
37778;BME280;23615;51.506;7.678;2022-12-18T06:01:08;101208.72;;;-3.62;90.51
37778;BME280;23615;51.506;7.678;2022-12-18T06:03:34;101221.78;;;-3.62;90.08
37778;BME280;23615;51.506;7.678;2022-12-18T06:05:59;101231.47;;;-3.64;90.35
37778;BME280;23615;51.506;7.678;2022-12-18T06:08:25;101230.75;;;-3.66;90.54
37778;BME280;23615;51.506;7.678;2022-12-18T06:10:51;101231.78;;;-3.68;90.66
37778;BME280;23615;51.506;7.678;2022-12-18T06:13:18;101234.50;;;-3.70;90.52
37778;BME280;23615;51.506;7.678;2022-12-18T06:15:43;101237.84;;;-3.68;90.52
37778;BME280;23615;51.506;7.678;2022-12-18T06:18:08;101228.84;;;-3.64;90.59
37778;BME280;23615;51.506;7.678;2022-12-18T06:20:34;101238.25;;;-3.61;90.46
37778;BME280;23615;51.506;7.678;2022-12-18T06:23:01;101239.19;;;-3.62;90.20
37778;BME280;23615;51.506;7.678;2022-12-18T06:25:27;101248.59;;;-3.60;89.76
37778;BME280;23615;51.506;7.678;2022-12-18T06:27:52;101247.66;;;-3.59;89.60
37778;BME280;23615;51.506;7.678;2022-12-18T06:30:17;101257.16;;;-3.58;89.97
37778;BME280;23615;51.506;7.678;2022-12-18T06:32:43;101257.25;;;-3.59;89.60
37778;BME280;23615;51.506;7.678;2022-12-18T06:35:08;101257.97;;;-3.57;89.64
37778;BME280;23615;51.506;7.678;2022-12-18T06:37:33;101256.91;;;-3.55;89.45
37778;BME280;23615;51.506;7.678;2022-12-18T06:39:59;101251.09;;;-3.58;89.77
37778;BME280;23615;51.506;7.678;2022-12-18T06:42:26;101245.56;;;-3.54;89.27
37778;BME280;23615;51.506;7.678;2022-12-18T06:44:51;101249.84;;;-3.53;89.39
37778;BME280;23615;51.506;7.678;2022-12-18T06:47:17;101250.56;;;-3.51;89.53
37778;BME280;23615;51.506;7.678;2022-12-18T06:49:43;101256.09;;;-3.43;88.74
37778;BME280;23615;51.506;7.678;2022-12-18T06:52:08;101242.56;;;-3.48;88.73
37778;BME280;23615;51.506;7.678;2022-12-18T06:54:33;101246.84;;;-3.47;88.58
37778;BME280;23615;51.506;7.678;2022-12-18T06:56:59;101240.44;;;-3.43;88.59
37778;BME280;23615;51.506;7.678;2022-12-18T06:59:24;101243.69;;;-3.39;88.24
37778;BME280;23615;51.506;7.678;2022-12-18T07:01:49;101248.81;;;-3.37;88.51
37778;BME280;23615;51.506;7.678;2022-12-18T07:04:15;101244.13;;;-3.32;88.61
37778;BME280;23615;51.506;7.678;2022-12-18T07:06:40;101234.50;;;-3.32;87.84
37778;BME280;23615;51.506;7.678;2022-12-18T07:09:05;101232.00;;;-3.21;87.72
37778;BME280;23615;51.506;7.678;2022-12-18T07:11:32;101239.59;;;-3.18;87.65
37778;BME280;23615;51.506;7.678;2022-12-18T07:13:58;101243.88;;;-3.17;87.42
37778;BME280;23615;51.506;7.678;2022-12-18T07:16:26;101243.69;;;-3.14;87.11
37778;BME280;23615;51.506;7.678;2022-12-18T07:18:54;101239.50;;;-3.16;87.04
37778;BME280;23615;51.506;7.678;2022-12-18T07:21:21;101229.38;;;-3.08;86.97
37778;BME280;23615;51.506;7.678;2022-12-18T07:23:46;101232.13;;;-3.10;86.99
37778;BME280;23615;51.506;7.678;2022-12-18T07:26:14;101233.88;;;-3.10;86.70
37778;BME280;23615;51.506;7.678;2022-12-18T07:28:40;101232.91;;;-3.09;86.98
37778;BME280;23615;51.506;7.678;2022-12-18T07:31:08;101229.16;;;-3.05;86.73
37778;BME280;23615;51.506;7.678;2022-12-18T07:33:35;101228.88;;;-3.00;86.54
37778;BME280;23615;51.506;7.678;2022-12-18T07:36:02;101223.50;;;-2.99;86.36
37778;BME280;23615;51.506;7.678;2022-12-18T07:38:28;101225.09;;;-2.96;85.98
37778;BME280;23615;51.506;7.678;2022-12-18T07:40:54;101221.44;;;-2.94;85.90
37778;BME280;23615;51.506;7.678;2022-12-18T07:43:19;101219.31;;;-2.89;85.94
37778;BME280;23615;51.506;7.678;2022-12-18T07:45:44;101212.56;;;-2.91;86.06
37778;BME280;23615;51.506;7.678;2022-12-18T07:48:10;101223.59;;;-2.88;85.84
37778;BME280;23615;51.506;7.678;2022-12-18T07:50:35;101221.53;;;-2.83;86.00
37778;BME280;23615;51.506;7.678;2022-12-18T07:53:00;101216.06;;;-2.80;85.59
37778;BME280;23615;51.506;7.678;2022-12-18T07:55:29;101218.47;;;-2.77;85.58
37778;BME280;23615;51.506;7.678;2022-12-18T07:57:55;101216.47;;;-2.73;85.41
37778;BME280;23615;51.506;7.678;2022-12-18T08:00:20;101217.28;;;-2.73;85.41
37778;BME280;23615;51.506;7.678;2022-12-18T08:02:46;101225.00;;;-2.71;85.47
37778;BME280;23615;51.506;7.678;2022-12-18T08:05:11;101229.19;;;-2.69;85.14
37778;BME280;23615;51.506;7.678;2022-12-18T08:07:37;101226.28;;;-2.64;85.31
37778;BME280;23615;51.506;7.678;2022-12-18T08:10:02;101232.09;;;-2.60;84.87
37778;BME280;23615;51.506;7.678;2022-12-18T08:12:27;101227.59;;;-2.58;84.81
37778;BME280;23615;51.506;7.678;2022-12-18T08:14:53;101230.72;;;-2.53;84.78
37778;BME280;23615;51.506;7.678;2022-12-18T08:17:19;101224.94;;;-2.46;84.52
37778;BME280;23615;51.506;7.678;2022-12-18T08:19:45;101220.84;;;-2.37;84.01
37778;BME280;23615;51.506;7.678;2022-12-18T08:22:10;101213.69;;;-2.35;83.92
37778;BME280;23615;51.506;7.678;2022-12-18T08:24:35;101210.25;;;-2.36;83.39
37778;BME280;23615;51.506;7.678;2022-12-18T08:27:00;101203.34;;;-2.37;83.67
37778;BME280;23615;51.506;7.678;2022-12-18T08:29:26;101195.00;;;-2.29;82.98
37778;BME280;23615;51.506;7.678;2022-12-18T08:31:51;101189.88;;;-2.31;83.37
37778;BME280;23615;51.506;7.678;2022-12-18T08:34:16;101182.50;;;-2.26;83.44
37778;BME280;23615;51.506;7.678;2022-12-18T08:36:41;101170.28;;;-2.25;83.39
37778;BME280;23615;51.506;7.678;2022-12-18T08:39:07;101173.72;;;-2.24;83.29
37778;BME280;23615;51.506;7.678;2022-12-18T08:41:32;101171.47;;;-2.18;83.65
37778;BME280;23615;51.506;7.678;2022-12-18T08:43:57;101164.38;;;-2.16;83.49
37778;BME280;23615;51.506;7.678;2022-12-18T08:46:42;101155.13;;;-2.09;83.21
37778;BME280;23615;51.506;7.678;2022-12-18T08:49:09;101144.13;;;-2.01;82.70
37778;BME280;23615;51.506;7.678;2022-12-18T08:51:35;101136.75;;;-1.96;82.79
37778;BME280;23615;51.506;7.678;2022-12-18T08:54:01;101125.69;;;-1.89;82.26
37778;BME280;23615;51.506;7.678;2022-12-18T08:56:26;101124.88;;;-1.89;82.31
37778;BME280;23615;51.506;7.678;2022-12-18T08:58:53;101133.56;;;-1.77;81.91
37778;BME280;23615;51.506;7.678;2022-12-18T09:01:19;101125.25;;;-1.71;82.08
37778;BME280;23615;51.506;7.678;2022-12-18T09:03:44;101125.03;;;-1.57;81.58
37778;BME280;23615;51.506;7.678;2022-12-18T09:06:14;101130.00;;;-1.54;80.66
37778;BME280;23615;51.506;7.678;2022-12-18T09:08:40;101129.78;;;-1.51;80.86
37778;BME280;23615;51.506;7.678;2022-12-18T09:13:45;101155.84;;;-1.49;80.18
37778;BME280;23615;51.506;7.678;2022-12-18T09:16:10;101155.72;;;-1.37;81.02
37778;BME280;23615;51.506;7.678;2022-12-18T09:18:36;101162.97;;;-1.18;81.83
37778;BME280;23615;51.506;7.678;2022-12-18T09:21:08;101164.75;;;-1.07;80.76
37778;BME280;23615;51.506;7.678;2022-12-18T09:23:33;101153.19;;;-1.05;79.61
37778;BME280;23615;51.506;7.678;2022-12-18T09:25:59;101160.22;;;-1.05;79.34
37778;BME280;23615;51.506;7.678;2022-12-18T09:28:26;101155.81;;;-1.05;78.96
37778;BME280;23615;51.506;7.678;2022-12-18T09:30:52;101140.72;;;-1.01;79.19
37778;BME280;23615;51.506;7.678;2022-12-18T09:33:17;101133.09;;;-1.04;79.20
37778;BME280;23615;51.506;7.678;2022-12-18T09:35:44;101132.03;;;-1.02;79.22
37778;BME280;23615;51.506;7.678;2022-12-18T09:38:12;101128.06;;;-0.96;78.76
37778;BME280;23615;51.506;7.678;2022-12-18T09:43:58;101157.69;;;-0.73;77.59
37778;BME280;23615;51.506;7.678;2022-12-18T09:46:33;101141.34;;;-0.77;77.56
37778;BME280;23615;51.506;7.678;2022-12-18T09:49:03;101129.44;;;-0.81;77.67
37778;BME280;23615;51.506;7.678;2022-12-18T09:51:53;101119.25;;;-0.84;77.84
37778;BME280;23615;51.506;7.678;2022-12-18T09:54:30;101128.72;;;-0.72;77.31
37778;BME280;23615;51.506;7.678;2022-12-18T09:56:57;101132.66;;;-0.78;77.31
37778;BME280;23615;51.506;7.678;2022-12-18T09:59:26;101121.22;;;-0.65;77.41
37778;BME280;23615;51.506;7.678;2022-12-18T10:01:54;101119.94;;;-0.50;76.57
37778;BME280;23615;51.506;7.678;2022-12-18T10:04:20;101113.03;;;-0.51;76.79
37778;BME280;23615;51.506;7.678;2022-12-18T10:07:01;101115.03;;;-0.44;76.40
37778;BME280;23615;51.506;7.678;2022-12-18T10:09:37;101121.47;;;-0.36;75.28
37778;BME280;23615;51.506;7.678;2022-12-18T10:12:21;101122.97;;;-0.34;75.93
37778;BME280;23615;51.506;7.678;2022-12-18T10:15:06;101122.72;;;-0.31;75.57
37778;BME280;23615;51.506;7.678;2022-12-18T10:17:51;101103.31;;;-0.28;75.71
37778;BME280;23615;51.506;7.678;2022-12-18T10:20:30;101103.75;;;-0.23;75.72
37778;BME280;23615;51.506;7.678;2022-12-18T10:23:03;101096.66;;;-0.12;75.50
37778;BME280;23615;51.506;7.678;2022-12-18T10:28:16;101092.19;;;0.00;75.79
37778;BME280;23615;51.506;7.678;2022-12-18T10:30:43;101085.44;;;0.07;74.91
37778;BME280;23615;51.506;7.678;2022-12-18T10:33:13;101086.00;;;0.11;75.31
37778;BME280;23615;51.506;7.678;2022-12-18T10:35:41;101082.28;;;0.13;74.89
37778;BME280;23615;51.506;7.678;2022-12-18T10:43:23;101064.56;;;0.26;74.43
37778;BME280;23615;51.506;7.678;2022-12-18T10:48:40;101042.59;;;0.37;73.74
37778;BME280;23615;51.506;7.678;2022-12-18T10:51:07;101040.81;;;0.37;74.38
37778;BME280;23615;51.506;7.678;2022-12-18T10:53:35;101043.88;;;0.43;74.21
37778;BME280;23615;51.506;7.678;2022-12-18T10:56:03;101041.97;;;0.45;73.98
37778;BME280;23615;51.506;7.678;2022-12-18T10:58:36;101038.22;;;0.47;73.93
37778;BME280;23615;51.506;7.678;2022-12-18T11:03:40;101035.19;;;0.42;73.99
37778;BME280;23615;51.506;7.678;2022-12-18T11:08:31;101027.84;;;0.36;73.22
37778;BME280;23615;51.506;7.678;2022-12-18T11:10:57;101027.19;;;0.44;73.11
37778;BME280;23615;51.506;7.678;2022-12-18T11:13:24;101026.63;;;0.50;73.18
37778;BME280;23615;51.506;7.678;2022-12-18T11:15:51;101025.56;;;0.62;72.96
37778;BME280;23615;51.506;7.678;2022-12-18T11:18:27;101029.19;;;0.70;72.78
37778;BME280;23615;51.506;7.678;2022-12-18T11:21:08;101019.50;;;0.71;71.99
37778;BME280;23615;51.506;7.678;2022-12-18T11:23:34;101006.94;;;0.84;70.84
37778;BME280;23615;51.506;7.678;2022-12-18T11:26:03;101016.22;;;0.88;69.94
37778;BME280;23615;51.506;7.678;2022-12-18T11:28:51;101012.06;;;0.95;70.60
37778;BME280;23615;51.506;7.678;2022-12-18T11:31:25;101003.63;;;0.92;70.20
37778;BME280;23615;51.506;7.678;2022-12-18T11:34:13;100993.81;;;0.94;69.83
37778;BME280;23615;51.506;7.678;2022-12-18T11:36:50;100999.63;;;0.97;69.56
37778;BME280;23615;51.506;7.678;2022-12-18T11:39:27;100992.72;;;0.96;69.71
37778;BME280;23615;51.506;7.678;2022-12-18T11:42:00;100990.66;;;1.00;70.42
37778;BME280;23615;51.506;7.678;2022-12-18T11:44:51;100989.53;;;1.02;71.09
37778;BME280;23615;51.506;7.678;2022-12-18T11:47:28;100991.75;;;1.07;70.70
37778;BME280;23615;51.506;7.678;2022-12-18T11:49:55;100994.66;;;1.13;71.14
37778;BME280;23615;51.506;7.678;2022-12-18T11:52:31;100996.88;;;1.18;71.01
37778;BME280;23615;51.506;7.678;2022-12-18T11:55:09;100992.84;;;1.33;69.84
37778;BME280;23615;51.506;7.678;2022-12-18T12:00:23;100982.47;;;1.32;69.96
37778;BME280;23615;51.506;7.678;2022-12-18T12:03:19;100966.00;;;1.30;70.35
37778;BME280;23615;51.506;7.678;2022-12-18T12:06:12;100951.75;;;1.32;69.70
37778;BME280;23615;51.506;7.678;2022-12-18T12:09:08;100944.56;;;1.34;69.22
37778;BME280;23615;51.506;7.678;2022-12-18T12:15:05;100945.66;;;1.41;67.35
37778;BME280;23615;51.506;7.678;2022-12-18T12:17:44;100935.41;;;1.38;68.58
37778;BME280;23615;51.506;7.678;2022-12-18T12:23:26;100935.22;;;1.59;68.13
37778;BME280;23615;51.506;7.678;2022-12-18T12:26:04;100940.47;;;1.59;67.16
37778;BME280;23615;51.506;7.678;2022-12-18T12:28:55;100930.94;;;1.58;67.33
37778;BME280;23615;51.506;7.678;2022-12-18T12:37:19;100930.06;;;1.67;67.98
37778;BME280;23615;51.506;7.678;2022-12-18T12:39:50;100925.78;;;1.66;67.36
37778;BME280;23615;51.506;7.678;2022-12-18T12:42:44;100922.75;;;1.61;66.26
37778;BME280;23615;51.506;7.678;2022-12-18T12:45:38;100923.00;;;1.68;67.15
37778;BME280;23615;51.506;7.678;2022-12-18T12:48:16;100918.31;;;1.71;67.36
37778;BME280;23615;51.506;7.678;2022-12-18T12:50:44;100915.81;;;1.70;67.48
37778;BME280;23615;51.506;7.678;2022-12-18T12:53:20;100907.91;;;1.70;67.55
37778;BME280;23615;51.506;7.678;2022-12-18T12:55:46;100901.09;;;1.77;66.59
37778;BME280;23615;51.506;7.678;2022-12-18T12:58:23;100894.28;;;1.84;66.54
37778;BME280;23615;51.506;7.678;2022-12-18T13:01:01;100890.16;;;1.81;66.75
37778;BME280;23615;51.506;7.678;2022-12-18T13:09:11;100877.94;;;1.90;66.32
37778;BME280;23615;51.506;7.678;2022-12-18T13:11:44;100881.38;;;1.91;66.55
37778;BME280;23615;51.506;7.678;2022-12-18T13:14:31;100887.47;;;1.91;66.93
37778;BME280;23615;51.506;7.678;2022-12-18T13:17:28;100888.28;;;1.92;67.36
37778;BME280;23615;51.506;7.678;2022-12-18T13:20:13;100887.47;;;1.91;66.83
37778;BME280;23615;51.506;7.678;2022-12-18T13:22:45;100886.47;;;1.92;66.65
37778;BME280;23615;51.506;7.678;2022-12-18T13:28:03;100871.00;;;1.89;66.38
37778;BME280;23615;51.506;7.678;2022-12-18T13:40:58;100884.69;;;1.93;66.89
37778;BME280;23615;51.506;7.678;2022-12-18T13:43:42;100873.50;;;1.91;67.08
37778;BME280;23615;51.506;7.678;2022-12-18T13:49:00;100881.66;;;1.87;67.38
37778;BME280;23615;51.506;7.678;2022-12-18T13:51:26;100875.56;;;1.87;67.13
37778;BME280;23615;51.506;7.678;2022-12-18T13:54:01;100871.69;;;1.91;67.36
37778;BME280;23615;51.506;7.678;2022-12-18T13:56:30;100882.97;;;2.01;66.97
37778;BME280;23615;51.506;7.678;2022-12-18T14:01:35;100868.88;;;1.93;67.10
37778;BME280;23615;51.506;7.678;2022-12-18T14:04:19;100875.44;;;1.88;67.51
37778;BME280;23615;51.506;7.678;2022-12-18T14:06:46;100877.75;;;1.92;67.74
37778;BME280;23615;51.506;7.678;2022-12-18T14:09:16;100874.16;;;1.93;67.55
37778;BME280;23615;51.506;7.678;2022-12-18T14:11:48;100873.63;;;1.89;67.92
37778;BME280;23615;51.506;7.678;2022-12-18T14:14:18;100869.47;;;1.86;67.76
37778;BME280;23615;51.506;7.678;2022-12-18T14:16:45;100878.34;;;1.85;68.02
37778;BME280;23615;51.506;7.678;2022-12-18T14:19:16;100876.69;;;1.84;68.21
37778;BME280;23615;51.506;7.678;2022-12-18T14:21:49;100868.94;;;1.83;68.46